sensor_id;sensor_type;location;lat;lon;timestamp;temperature;humidity
76855;DHT22;66343;44.588;33.450;2023-02-18T00:00:22;8.70;71.90
76855;DHT22;66343;44.588;33.450;2023-02-18T00:02:53;8.75;71.57
76855;DHT22;66343;44.588;33.450;2023-02-18T00:05:25;8.75;71.58
76855;DHT22;66343;44.588;33.450;2023-02-18T00:07:59;8.77;71.29
76855;DHT22;66343;44.588;33.450;2023-02-18T00:10:31;8.70;71.30
76855;DHT22;66343;44.588;33.450;2023-02-18T00:12:59;8.63;71.03
76855;DHT22;66343;44.588;33.450;2023-02-18T00:15:31;8.60;70.63
76855;DHT22;66343;44.588;33.450;2023-02-18T00:18:03;8.60;69.54
76855;DHT22;66343;44.588;33.450;2023-02-18T00:20:34;8.57;69.52
76855;DHT22;66343;44.588;33.450;2023-02-18T00:23:06;8.56;69.66
76855;DHT22;66343;44.588;33.450;2023-02-18T00:25:36;8.60;69.69
76855;DHT22;66343;44.588;33.450;2023-02-18T00:28:07;8.62;69.92
76855;DHT22;66343;44.588;33.450;2023-02-18T00:30:44;8.63;70.18
76855;DHT22;66343;44.588;33.450;2023-02-18T00:33:13;8.62;70.51
76855;DHT22;66343;44.588;33.450;2023-02-18T00:35:47;8.65;70.49
76855;DHT22;66343;44.588;33.450;2023-02-18T00:38:20;8.71;70.90
76855;DHT22;66343;44.588;33.450;2023-02-18T00:40:54;8.67;71.53
76855;DHT22;66343;44.588;33.450;2023-02-18T00:43:26;8.67;71.77
76855;DHT22;66343;44.588;33.450;2023-02-18T00:45:55;8.67;72.35
76855;DHT22;66343;44.588;33.450;2023-02-18T00:48:26;8.75;71.93
76855;DHT22;66343;44.588;33.450;2023-02-18T00:50:57;8.73;71.83
76855;DHT22;66343;44.588;33.450;2023-02-18T00:53:36;8.72;71.68
76855;DHT22;66343;44.588;33.450;2023-02-18T00:56:10;8.68;71.79
76855;DHT22;66343;44.588;33.450;2023-02-18T00:58:47;8.63;71.50
76855;DHT22;66343;44.588;33.450;2023-02-18T01:01:22;8.55;72.25
76855;DHT22;66343;44.588;33.450;2023-02-18T01:03:56;8.51;73.14
76855;DHT22;66343;44.588;33.450;2023-02-18T01:06:31;8.55;72.96
76855;DHT22;66343;44.588;33.450;2023-02-18T01:09:05;8.56;73.57
76855;DHT22;66343;44.588;33.450;2023-02-18T01:11:41;8.55;73.86
76855;DHT22;66343;44.588;33.450;2023-02-18T01:14:10;8.55;74.91
76855;DHT22;66343;44.588;33.450;2023-02-18T01:16:42;8.50;75.36
76855;DHT22;66343;44.588;33.450;2023-02-18T01:19:16;8.50;75.92
76855;DHT22;66343;44.588;33.450;2023-02-18T01:21:47;8.46;76.40
76855;DHT22;66343;44.588;33.450;2023-02-18T01:24:16;8.43;76.58
76855;DHT22;66343;44.588;33.450;2023-02-18T01:26:48;8.38;76.97
76855;DHT22;66343;44.588;33.450;2023-02-18T01:29:18;8.43;76.72
76855;DHT22;66343;44.588;33.450;2023-02-18T01:31:48;8.42;76.73
76855;DHT22;66343;44.588;33.450;2023-02-18T01:34:17;8.41;76.82
76855;DHT22;66343;44.588;33.450;2023-02-18T01:36:46;8.41;76.86
76855;DHT22;66343;44.588;33.450;2023-02-18T01:39:17;8.39;77.38
76855;DHT22;66343;44.588;33.450;2023-02-18T01:41:51;8.35;77.54
76855;DHT22;66343;44.588;33.450;2023-02-18T01:44:24;8.32;77.88
76855;DHT22;66343;44.588;33.450;2023-02-18T01:46:58;8.29;78.13
76855;DHT22;66343;44.588;33.450;2023-02-18T01:49:33;8.29;78.39
76855;DHT22;66343;44.588;33.450;2023-02-18T01:52:21;8.31;78.29
76855;DHT22;66343;44.588;33.450;2023-02-18T01:54:55;8.28;78.41
76855;DHT22;66343;44.588;33.450;2023-02-18T01:57:34;8.26;78.22
76855;DHT22;66343;44.588;33.450;2023-02-18T02:00:13;8.31;78.11
76855;DHT22;66343;44.588;33.450;2023-02-18T02:02:48;8.29;78.04
76855;DHT22;66343;44.588;33.450;2023-02-18T02:05:21;8.23;78.26
76855;DHT22;66343;44.588;33.450;2023-02-18T02:07:51;8.28;77.92
76855;DHT22;66343;44.588;33.450;2023-02-18T02:16:08;8.27;77.57
76855;DHT22;66343;44.588;33.450;2023-02-18T02:25:02;8.15;77.21
76855;DHT22;66343;44.588;33.450;2023-02-18T02:36:36;8.15;76.16
76855;DHT22;66343;44.588;33.450;2023-02-18T02:42:14;8.03;76.34
76855;DHT22;66343;44.588;33.450;2023-02-18T02:45:27;8.03;75.60
76855;DHT22;66343;44.588;33.450;2023-02-18T02:51:38;7.97;75.63
76855;DHT22;66343;44.588;33.450;2023-02-18T02:54:16;7.91;76.50
76855;DHT22;66343;44.588;33.450;2023-02-18T02:57:05;7.94;76.65
76855;DHT22;66343;44.588;33.450;2023-02-18T02:59:40;7.94;76.55
76855;DHT22;66343;44.588;33.450;2023-02-18T03:05:38;7.88;77.06
76855;DHT22;66343;44.588;33.450;2023-02-18T03:11:19;7.79;77.41
76855;DHT22;66343;44.588;33.450;2023-02-18T03:14:12;7.81;77.25
76855;DHT22;66343;44.588;33.450;2023-02-18T03:19:40;7.81;77.43
76855;DHT22;66343;44.588;33.450;2023-02-18T03:22:24;7.82;76.92
76855;DHT22;66343;44.588;33.450;2023-02-18T03:24:57;7.83;76.57
76855;DHT22;66343;44.588;33.450;2023-02-18T03:27:42;7.84;76.37
76855;DHT22;66343;44.588;33.450;2023-02-18T03:30:37;7.85;76.51
76855;DHT22;66343;44.588;33.450;2023-02-18T03:33:14;7.86;76.66
76855;DHT22;66343;44.588;33.450;2023-02-18T03:35:51;7.88;76.12
76855;DHT22;66343;44.588;33.450;2023-02-18T03:38:33;7.83;75.87
76855;DHT22;66343;44.588;33.450;2023-02-18T03:41:06;7.71;75.95
76855;DHT22;66343;44.588;33.450;2023-02-18T03:43:39;7.69;76.47
76855;DHT22;66343;44.588;33.450;2023-02-18T03:46:13;7.62;76.95
76855;DHT22;66343;44.588;33.450;2023-02-18T03:48:49;7.63;77.42
76855;DHT22;66343;44.588;33.450;2023-02-18T03:51:23;7.67;77.08
76855;DHT22;66343;44.588;33.450;2023-02-18T03:53:52;7.65;77.08
76855;DHT22;66343;44.588;33.450;2023-02-18T03:56:26;7.62;76.96
76855;DHT22;66343;44.588;33.450;2023-02-18T03:59:00;7.60;77.14
76855;DHT22;66343;44.588;33.450;2023-02-18T04:01:34;7.57;77.30
76855;DHT22;66343;44.588;33.450;2023-02-18T04:04:07;7.61;77.40
76855;DHT22;66343;44.588;33.450;2023-02-18T04:06:36;7.64;76.84
76855;DHT22;66343;44.588;33.450;2023-02-18T04:09:07;7.65;77.21
76855;DHT22;66343;44.588;33.450;2023-02-18T04:11:42;7.65;76.82
76855;DHT22;66343;44.588;33.450;2023-02-18T04:14:15;7.64;77.65
76855;DHT22;66343;44.588;33.450;2023-02-18T04:16:49;7.68;77.81
76855;DHT22;66343;44.588;33.450;2023-02-18T04:19:21;7.65;77.31
76855;DHT22;66343;44.588;33.450;2023-02-18T04:21:52;7.61;77.56
76855;DHT22;66343;44.588;33.450;2023-02-18T04:24:24;7.56;77.76
76855;DHT22;66343;44.588;33.450;2023-02-18T04:26:55;7.53;78.14
76855;DHT22;66343;44.588;33.450;2023-02-18T04:29:27;7.52;78.41
76855;DHT22;66343;44.588;33.450;2023-02-18T04:31:59;7.50;78.90
76855;DHT22;66343;44.588;33.450;2023-02-18T04:34:31;7.44;79.31
76855;DHT22;66343;44.588;33.450;2023-02-18T04:37:03;7.43;80.39
76855;DHT22;66343;44.588;33.450;2023-02-18T04:39:34;7.42;81.11
76855;DHT22;66343;44.588;33.450;2023-02-18T04:42:06;7.43;81.03
76855;DHT22;66343;44.588;33.450;2023-02-18T04:44:40;7.46;81.43
76855;DHT22;66343;44.588;33.450;2023-02-18T04:47:13;7.48;81.85
76855;DHT22;66343;44.588;33.450;2023-02-18T04:49:44;7.52;82.02
76855;DHT22;66343;44.588;33.450;2023-02-18T04:52:13;7.56;81.71
76855;DHT22;66343;44.588;33.450;2023-02-18T04:54:42;7.56;82.00
76855;DHT22;66343;44.588;33.450;2023-02-18T04:57:16;7.59;81.91
76855;DHT22;66343;44.588;33.450;2023-02-18T04:59:49;7.65;82.00
76855;DHT22;66343;44.588;33.450;2023-02-18T05:02:21;7.71;81.70
76855;DHT22;66343;44.588;33.450;2023-02-18T05:04:52;7.76;81.54
76855;DHT22;66343;44.588;33.450;2023-02-18T05:07:28;7.79;81.40
76855;DHT22;66343;44.588;33.450;2023-02-18T05:09:59;7.82;81.22
76855;DHT22;66343;44.588;33.450;2023-02-18T05:12:29;7.78;81.43
76855;DHT22;66343;44.588;33.450;2023-02-18T05:15:00;7.78;81.70
76855;DHT22;66343;44.588;33.450;2023-02-18T05:17:29;7.85;81.76
76855;DHT22;66343;44.588;33.450;2023-02-18T05:20:01;7.89;81.65
76855;DHT22;66343;44.588;33.450;2023-02-18T05:22:31;7.90;81.52
76855;DHT22;66343;44.588;33.450;2023-02-18T05:25:08;7.93;81.46
76855;DHT22;66343;44.588;33.450;2023-02-18T05:27:44;7.91;81.73
76855;DHT22;66343;44.588;33.450;2023-02-18T05:30:17;7.93;81.94
76855;DHT22;66343;44.588;33.450;2023-02-18T05:32:46;7.94;81.91
76855;DHT22;66343;44.588;33.450;2023-02-18T05:35:18;7.99;82.01
76855;DHT22;66343;44.588;33.450;2023-02-18T05:37:50;8.03;81.96
76855;DHT22;66343;44.588;33.450;2023-02-18T05:40:19;8.06;82.13
76855;DHT22;66343;44.588;33.450;2023-02-18T05:42:49;8.12;82.03
76855;DHT22;66343;44.588;33.450;2023-02-18T05:45:20;8.17;81.99
76855;DHT22;66343;44.588;33.450;2023-02-18T05:47:56;8.23;81.86
76855;DHT22;66343;44.588;33.450;2023-02-18T05:50:30;8.27;81.73
76855;DHT22;66343;44.588;33.450;2023-02-18T05:53:08;8.29;81.58
76855;DHT22;66343;44.588;33.450;2023-02-18T05:55:44;8.32;81.66
76855;DHT22;66343;44.588;33.450;2023-02-18T05:58:19;8.35;81.53
76855;DHT22;66343;44.588;33.450;2023-02-18T06:00:51;8.41;81.30
76855;DHT22;66343;44.588;33.450;2023-02-18T06:03:22;8.42;81.11
76855;DHT22;66343;44.588;33.450;2023-02-18T06:05:54;8.44;80.97
76855;DHT22;66343;44.588;33.450;2023-02-18T06:08:26;8.48;80.69
76855;DHT22;66343;44.588;33.450;2023-02-18T06:10:57;8.51;80.89
76855;DHT22;66343;44.588;33.450;2023-02-18T06:13:28;8.56;80.21
76855;DHT22;66343;44.588;33.450;2023-02-18T06:15:57;8.56;80.17
76855;DHT22;66343;44.588;33.450;2023-02-18T06:18:26;8.62;79.93
76855;DHT22;66343;44.588;33.450;2023-02-18T06:20:55;8.66;79.66
76855;DHT22;66343;44.588;33.450;2023-02-18T06:23:29;8.72;79.30
76855;DHT22;66343;44.588;33.450;2023-02-18T06:26:01;8.74;79.20
76855;DHT22;66343;44.588;33.450;2023-02-18T06:28:33;8.76;78.97
76855;DHT22;66343;44.588;33.450;2023-02-18T06:31:04;8.77;79.04
76855;DHT22;66343;44.588;33.450;2023-02-18T06:33:33;8.74;79.08
76855;DHT22;66343;44.588;33.450;2023-02-18T06:36:07;8.75;78.87
76855;DHT22;66343;44.588;33.450;2023-02-18T06:38:41;8.78;78.62
76855;DHT22;66343;44.588;33.450;2023-02-18T06:41:13;8.80;76.32
76855;DHT22;66343;44.588;33.450;2023-02-18T06:43:48;8.83;76.90
76855;DHT22;66343;44.588;33.450;2023-02-18T06:46:19;8.89;77.03
76855;DHT22;66343;44.588;33.450;2023-02-18T06:48:53;8.90;75.54
76855;DHT22;66343;44.588;33.450;2023-02-18T06:51:25;8.90;76.49
76855;DHT22;66343;44.588;33.450;2023-02-18T06:53:55;8.93;77.16
76855;DHT22;66343;44.588;33.450;2023-02-18T06:56:29;8.94;77.27
76855;DHT22;66343;44.588;33.450;2023-02-18T06:59:05;9.01;77.50
76855;DHT22;66343;44.588;33.450;2023-02-18T07:01:38;9.05;77.41
76855;DHT22;66343;44.588;33.450;2023-02-18T07:04:09;9.09;77.37
76855;DHT22;66343;44.588;33.450;2023-02-18T07:06:40;9.15;76.66
76855;DHT22;66343;44.588;33.450;2023-02-18T07:09:12;9.17;76.58
76855;DHT22;66343;44.588;33.450;2023-02-18T07:11:51;9.22;75.92
76855;DHT22;66343;44.588;33.450;2023-02-18T07:14:22;9.29;75.58
76855;DHT22;66343;44.588;33.450;2023-02-18T07:16:54;9.25;75.29
76855;DHT22;66343;44.588;33.450;2023-02-18T07:19:28;9.26;75.10
76855;DHT22;66343;44.588;33.450;2023-02-18T07:21:59;9.24;75.75
76855;DHT22;66343;44.588;33.450;2023-02-18T07:24:30;9.29;75.66
76855;DHT22;66343;44.588;33.450;2023-02-18T07:27:02;9.30;75.41
76855;DHT22;66343;44.588;33.450;2023-02-18T07:29:31;9.26;75.38
76855;DHT22;66343;44.588;33.450;2023-02-18T07:32:05;9.29;75.78
76855;DHT22;66343;44.588;33.450;2023-02-18T07:34:37;9.32;76.47
76855;DHT22;66343;44.588;33.450;2023-02-18T07:37:06;9.31;75.83
76855;DHT22;66343;44.588;33.450;2023-02-18T07:39:42;9.26;76.44
76855;DHT22;66343;44.588;33.450;2023-02-18T07:42:11;9.29;77.34
76855;DHT22;66343;44.588;33.450;2023-02-18T07:44:49;9.25;76.95
76855;DHT22;66343;44.588;33.450;2023-02-18T07:47:25;9.19;77.09
76855;DHT22;66343;44.588;33.450;2023-02-18T07:49:55;9.14;77.86
76855;DHT22;66343;44.588;33.450;2023-02-18T07:52:29;9.08;77.75
76855;DHT22;66343;44.588;33.450;2023-02-18T07:55:00;9.07;78.50
76855;DHT22;66343;44.588;33.450;2023-02-18T07:57:34;9.03;78.94
76855;DHT22;66343;44.588;33.450;2023-02-18T08:00:27;9.00;79.34
76855;DHT22;66343;44.588;33.450;2023-02-18T08:02:59;8.98;79.86
76855;DHT22;66343;44.588;33.450;2023-02-18T08:05:28;8.95;79.92
76855;DHT22;66343;44.588;33.450;2023-02-18T08:07:58;8.94;80.72
76855;DHT22;66343;44.588;33.450;2023-02-18T08:10:27;8.98;80.70
76855;DHT22;66343;44.588;33.450;2023-02-18T08:13:00;9.00;80.81
76855;DHT22;66343;44.588;33.450;2023-02-18T08:15:35;9.05;80.58
76855;DHT22;66343;44.588;33.450;2023-02-18T08:18:27;9.07;80.91
76855;DHT22;66343;44.588;33.450;2023-02-18T08:21:02;9.09;80.93
76855;DHT22;66343;44.588;33.450;2023-02-18T08:23:31;9.09;81.45
76855;DHT22;66343;44.588;33.450;2023-02-18T08:26:04;9.06;81.68
76855;DHT22;66343;44.588;33.450;2023-02-18T08:28:42;9.09;81.52
76855;DHT22;66343;44.588;33.450;2023-02-18T08:31:19;9.09;81.46
76855;DHT22;66343;44.588;33.450;2023-02-18T08:33:54;9.08;81.93
76855;DHT22;66343;44.588;33.450;2023-02-18T08:36:27;9.12;82.39
76855;DHT22;66343;44.588;33.450;2023-02-18T08:39:01;9.15;81.72
76855;DHT22;66343;44.588;33.450;2023-02-18T08:41:35;9.16;81.76
76855;DHT22;66343;44.588;33.450;2023-02-18T08:44:10;9.20;82.62
76855;DHT22;66343;44.588;33.450;2023-02-18T08:46:45;9.23;82.39
76855;DHT22;66343;44.588;33.450;2023-02-18T08:49:20;9.26;81.05
76855;DHT22;66343;44.588;33.450;2023-02-18T08:51:59;9.29;80.87
76855;DHT22;66343;44.588;33.450;2023-02-18T08:54:29;9.33;81.05
76855;DHT22;66343;44.588;33.450;2023-02-18T08:57:01;9.35;80.58
76855;DHT22;66343;44.588;33.450;2023-02-18T08:59:34;9.34;80.04
76855;DHT22;66343;44.588;33.450;2023-02-18T09:02:03;9.34;80.48
76855;DHT22;66343;44.588;33.450;2023-02-18T09:04:33;9.35;80.01
76855;DHT22;66343;44.588;33.450;2023-02-18T09:07:03;9.34;79.30
76855;DHT22;66343;44.588;33.450;2023-02-18T09:09:34;9.36;79.17
76855;DHT22;66343;44.588;33.450;2023-02-18T09:12:05;9.34;79.07
76855;DHT22;66343;44.588;33.450;2023-02-18T09:14:42;9.35;79.24
76855;DHT22;66343;44.588;33.450;2023-02-18T09:17:14;9.39;78.34
76855;DHT22;66343;44.588;33.450;2023-02-18T09:19:48;9.36;78.66
76855;DHT22;66343;44.588;33.450;2023-02-18T09:22:20;9.32;78.99
76855;DHT22;66343;44.588;33.450;2023-02-18T09:24:58;9.29;79.39
76855;DHT22;66343;44.588;33.450;2023-02-18T09:27:30;9.20;79.33
76855;DHT22;66343;44.588;33.450;2023-02-18T09:30:04;9.14;79.67
76855;DHT22;66343;44.588;33.450;2023-02-18T09:32:34;9.08;80.07
76855;DHT22;66343;44.588;33.450;2023-02-18T09:35:07;9.03;79.49
76855;DHT22;66343;44.588;33.450;2023-02-18T09:37:45;9.01;80.13
76855;DHT22;66343;44.588;33.450;2023-02-18T09:40:27;9.02;80.02
76855;DHT22;66343;44.588;33.450;2023-02-18T09:43:00;9.01;79.94
76855;DHT22;66343;44.588;33.450;2023-02-18T09:45:32;8.98;80.32
76855;DHT22;66343;44.588;33.450;2023-02-18T09:48:03;8.97;80.11
76855;DHT22;66343;44.588;33.450;2023-02-18T09:50:36;8.98;80.82
76855;DHT22;66343;44.588;33.450;2023-02-18T09:53:15;8.98;80.52
76855;DHT22;66343;44.588;33.450;2023-02-18T09:55:50;8.93;80.30
76855;DHT22;66343;44.588;33.450;2023-02-18T09:58:30;8.95;80.49
76855;DHT22;66343;44.588;33.450;2023-02-18T10:03:34;8.94;80.62
76855;DHT22;66343;44.588;33.450;2023-02-18T10:06:37;8.96;80.43
76855;DHT22;66343;44.588;33.450;2023-02-18T10:09:21;9.00;80.29
76855;DHT22;66343;44.588;33.450;2023-02-18T10:12:18;9.03;80.14
76855;DHT22;66343;44.588;33.450;2023-02-18T10:14:57;9.09;80.39
76855;DHT22;66343;44.588;33.450;2023-02-18T10:17:32;9.14;79.95
76855;DHT22;66343;44.588;33.450;2023-02-18T10:20:05;9.18;79.46
76855;DHT22;66343;44.588;33.450;2023-02-18T10:22:37;9.20;79.87
76855;DHT22;66343;44.588;33.450;2023-02-18T10:25:19;9.26;79.59
76855;DHT22;66343;44.588;33.450;2023-02-18T10:27:50;9.30;80.14
76855;DHT22;66343;44.588;33.450;2023-02-18T10:30:40;9.29;79.62
76855;DHT22;66343;44.588;33.450;2023-02-18T10:36:23;9.38;78.45
76855;DHT22;66343;44.588;33.450;2023-02-18T10:47:46;9.39;78.98
76855;DHT22;66343;44.588;33.450;2023-02-18T10:50:40;9.46;79.45
76855;DHT22;66343;44.588;33.450;2023-02-18T10:53:33;9.54;79.19
76855;DHT22;66343;44.588;33.450;2023-02-18T10:56:39;9.50;79.37
76855;DHT22;66343;44.588;33.450;2023-02-18T10:59:23;9.47;79.52
76855;DHT22;66343;44.588;33.450;2023-02-18T11:02:13;9.46;79.84
76855;DHT22;66343;44.588;33.450;2023-02-18T11:04:49;9.49;79.20
76855;DHT22;66343;44.588;33.450;2023-02-18T11:07:29;9.42;79.22
76855;DHT22;66343;44.588;33.450;2023-02-18T11:10:26;9.40;78.59
76855;DHT22;66343;44.588;33.450;2023-02-18T11:13:00;9.42;78.45
76855;DHT22;66343;44.588;33.450;2023-02-18T11:15:36;9.42;78.22
76855;DHT22;66343;44.588;33.450;2023-02-18T11:18:29;9.48;77.79
76855;DHT22;66343;44.588;33.450;2023-02-18T11:21:05;9.51;77.28
76855;DHT22;66343;44.588;33.450;2023-02-18T11:23:52;9.50;77.37
76855;DHT22;66343;44.588;33.450;2023-02-18T11:26:28;9.51;77.77
76855;DHT22;66343;44.588;33.450;2023-02-18T11:29:18;9.49;77.56
76855;DHT22;66343;44.588;33.450;2023-02-18T11:32:13;9.51;77.89
76855;DHT22;66343;44.588;33.450;2023-02-18T11:35:23;9.46;78.10
76855;DHT22;66343;44.588;33.450;2023-02-18T11:37:53;9.42;78.45
76855;DHT22;66343;44.588;33.450;2023-02-18T11:40:30;9.40;78.72
76855;DHT22;66343;44.588;33.450;2023-02-18T11:43:13;9.32;79.09
76855;DHT22;66343;44.588;33.450;2023-02-18T11:45:44;9.29;79.52
76855;DHT22;66343;44.588;33.450;2023-02-18T11:48:21;9.31;78.98
76855;DHT22;66343;44.588;33.450;2023-02-18T11:51:01;9.35;79.19
76855;DHT22;66343;44.588;33.450;2023-02-18T11:53:49;9.34;78.57
76855;DHT22;66343;44.588;33.450;2023-02-18T11:56:24;9.42;78.82
76855;DHT22;66343;44.588;33.450;2023-02-18T11:59:00;9.45;78.82
76855;DHT22;66343;44.588;33.450;2023-02-18T12:01:41;9.48;78.70
76855;DHT22;66343;44.588;33.450;2023-02-18T12:04:20;9.49;78.66
76855;DHT22;66343;44.588;33.450;2023-02-18T12:07:34;9.60;78.48
76855;DHT22;66343;44.588;33.450;2023-02-18T12:10:29;9.57;78.35
76855;DHT22;66343;44.588;33.450;2023-02-18T12:13:06;9.59;78.51
76855;DHT22;66343;44.588;33.450;2023-02-18T12:16:18;9.59;78.41
76855;DHT22;66343;44.588;33.450;2023-02-18T12:19:07;9.59;78.36
76855;DHT22;66343;44.588;33.450;2023-02-18T12:22:04;9.64;78.11
76855;DHT22;66343;44.588;33.450;2023-02-18T12:25:08;9.71;77.98
76855;DHT22;66343;44.588;33.450;2023-02-18T12:39:17;9.84;76.50
76855;DHT22;66343;44.588;33.450;2023-02-18T12:50:47;9.91;76.02
76855;DHT22;66343;44.588;33.450;2023-02-18T12:59:19;9.86;76.07
76855;DHT22;66343;44.588;33.450;2023-02-18T13:02:29;9.82;75.97
76855;DHT22;66343;44.588;33.450;2023-02-18T13:08:00;9.84;76.24
76855;DHT22;66343;44.588;33.450;2023-02-18T13:11:00;9.85;75.57
76855;DHT22;66343;44.588;33.450;2023-02-18T13:13:41;9.79;75.82
76855;DHT22;66343;44.588;33.450;2023-02-18T13:16:16;9.79;75.72
76855;DHT22;66343;44.588;33.450;2023-02-18T13:19:19;9.79;75.70
76855;DHT22;66343;44.588;33.450;2023-02-18T13:21:53;9.83;75.34
76855;DHT22;66343;44.588;33.450;2023-02-18T13:24:40;9.86;75.49
76855;DHT22;66343;44.588;33.450;2023-02-18T13:27:38;9.83;74.99
76855;DHT22;66343;44.588;33.450;2023-02-18T13:33:21;9.82;74.96
76855;DHT22;66343;44.588;33.450;2023-02-18T13:36:27;9.83;74.88
76855;DHT22;66343;44.588;33.450;2023-02-18T13:39:05;9.84;74.33
76855;DHT22;66343;44.588;33.450;2023-02-18T13:41:43;9.82;74.48
76855;DHT22;66343;44.588;33.450;2023-02-18T13:46:59;9.85;74.26
76855;DHT22;66343;44.588;33.450;2023-02-18T13:49:38;9.83;74.29
76855;DHT22;66343;44.588;33.450;2023-02-18T13:52:19;9.86;74.15
76855;DHT22;66343;44.588;33.450;2023-02-18T13:54:50;9.89;74.20
76855;DHT22;66343;44.588;33.450;2023-02-18T13:57:23;9.86;74.29
76855;DHT22;66343;44.588;33.450;2023-02-18T14:00:02;9.83;74.42
76855;DHT22;66343;44.588;33.450;2023-02-18T14:02:34;9.82;74.53
76855;DHT22;66343;44.588;33.450;2023-02-18T14:05:44;9.81;74.65
76855;DHT22;66343;44.588;33.450;2023-02-18T14:08:36;9.81;74.78
76855;DHT22;66343;44.588;33.450;2023-02-18T14:13:54;9.81;74.50
76855;DHT22;66343;44.588;33.450;2023-02-18T14:16:24;9.80;74.67
76855;DHT22;66343;44.588;33.450;2023-02-18T14:18:57;9.81;74.49
76855;DHT22;66343;44.588;33.450;2023-02-18T14:21:45;9.83;74.73
76855;DHT22;66343;44.588;33.450;2023-02-18T14:24:47;9.82;74.41
76855;DHT22;66343;44.588;33.450;2023-02-18T14:27:23;9.84;74.36
76855;DHT22;66343;44.588;33.450;2023-02-18T14:29:53;9.80;74.28
76855;DHT22;66343;44.588;33.450;2023-02-18T14:32:24;9.79;74.31
76855;DHT22;66343;44.588;33.450;2023-02-18T14:38:28;9.82;74.28
76855;DHT22;66343;44.588;33.450;2023-02-18T14:49:51;9.78;75.12
76855;DHT22;66343;44.588;33.450;2023-02-18T14:52:37;9.75;75.60
76855;DHT22;66343;44.588;33.450;2023-02-18T14:55:22;9.71;76.10
76855;DHT22;66343;44.588;33.450;2023-02-18T15:00:42;9.66;76.69
76855;DHT22;66343;44.588;33.450;2023-02-18T15:03:16;9.65;76.71
76855;DHT22;66343;44.588;33.450;2023-02-18T15:05:49;9.64;76.73
76855;DHT22;66343;44.588;33.450;2023-02-18T15:08:20;9.65;76.67
76855;DHT22;66343;44.588;33.450;2023-02-18T15:10:58;9.63;76.83
76855;DHT22;66343;44.588;33.450;2023-02-18T15:13:39;9.62;76.82
76855;DHT22;66343;44.588;33.450;2023-02-18T15:16:28;9.64;76.79
76855;DHT22;66343;44.588;33.450;2023-02-18T15:19:05;9.63;76.65
76855;DHT22;66343;44.588;33.450;2023-02-18T15:21:41;9.66;76.55
76855;DHT22;66343;44.588;33.450;2023-02-18T15:24:31;9.67;76.47
76855;DHT22;66343;44.588;33.450;2023-02-18T15:27:10;9.69;76.47
76855;DHT22;66343;44.588;33.450;2023-02-18T15:29:55;9.69;76.43
76855;DHT22;66343;44.588;33.450;2023-02-18T15:32:26;9.68;76.50
76855;DHT22;66343;44.588;33.450;2023-02-18T15:35:01;9.71;76.34
76855;DHT22;66343;44.588;33.450;2023-02-18T15:37:34;9.69;76.41
76855;DHT22;66343;44.588;33.450;2023-02-18T15:40:15;9.70;76.48
76855;DHT22;66343;44.588;33.450;2023-02-18T15:42:50;9.69;76.37
76855;DHT22;66343;44.588;33.450;2023-02-18T15:45:44;9.70;76.31
76855;DHT22;66343;44.588;33.450;2023-02-18T15:48:46;9.70;76.48
76855;DHT22;66343;44.588;33.450;2023-02-18T15:51:25;9.69;76.40
76855;DHT22;66343;44.588;33.450;2023-02-18T15:54:04;9.74;76.49
76855;DHT22;66343;44.588;33.450;2023-02-18T15:56:39;9.72;76.34
76855;DHT22;66343;44.588;33.450;2023-02-18T16:01:55;9.71;76.56
76855;DHT22;66343;44.588;33.450;2023-02-18T16:04:35;9.71;76.45
76855;DHT22;66343;44.588;33.450;2023-02-18T16:07:30;9.70;76.61
76855;DHT22;66343;44.588;33.450;2023-02-18T16:10:14;9.70;76.74
76855;DHT22;66343;44.588;33.450;2023-02-18T16:12:56;9.69;76.87
76855;DHT22;66343;44.588;33.450;2023-02-18T16:15:41;9.70;77.12
76855;DHT22;66343;44.588;33.450;2023-02-18T16:18:30;9.71;77.19
76855;DHT22;66343;44.588;33.450;2023-02-18T16:21:28;9.69;76.98
76855;DHT22;66343;44.588;33.450;2023-02-18T16:24:27;9.70;77.15
76855;DHT22;66343;44.588;33.450;2023-02-18T16:26:59;9.71;77.27
76855;DHT22;66343;44.588;33.450;2023-02-18T16:29:41;9.70;76.95
76855;DHT22;66343;44.588;33.450;2023-02-18T16:32:11;9.70;76.90
76855;DHT22;66343;44.588;33.450;2023-02-18T16:34:43;9.70;76.94
76855;DHT22;66343;44.588;33.450;2023-02-18T16:37:20;9.71;76.72
76855;DHT22;66343;44.588;33.450;2023-02-18T16:40:33;9.72;76.64
76855;DHT22;66343;44.588;33.450;2023-02-18T16:43:25;9.71;76.24
76855;DHT22;66343;44.588;33.450;2023-02-18T16:45:58;9.74;76.19
76855;DHT22;66343;44.588;33.450;2023-02-18T16:48:45;9.74;76.26
76855;DHT22;66343;44.588;33.450;2023-02-18T16:51:28;9.74;76.38
76855;DHT22;66343;44.588;33.450;2023-02-18T16:54:05;9.74;76.41
76855;DHT22;66343;44.588;33.450;2023-02-18T16:56:35;9.75;76.35
76855;DHT22;66343;44.588;33.450;2023-02-18T16:59:11;9.76;76.58
76855;DHT22;66343;44.588;33.450;2023-02-18T17:01:44;9.78;76.37
76855;DHT22;66343;44.588;33.450;2023-02-18T17:04:17;9.77;76.36
76855;DHT22;66343;44.588;33.450;2023-02-18T17:06:54;9.79;76.41
76855;DHT22;66343;44.588;33.450;2023-02-18T17:09:31;9.80;76.44
76855;DHT22;66343;44.588;33.450;2023-02-18T17:12:03;9.82;76.37
76855;DHT22;66343;44.588;33.450;2023-02-18T17:14:35;9.84;76.27
76855;DHT22;66343;44.588;33.450;2023-02-18T17:17:11;9.84;76.04
76855;DHT22;66343;44.588;33.450;2023-02-18T17:19:49;9.80;76.12
76855;DHT22;66343;44.588;33.450;2023-02-18T17:22:19;9.78;76.17
76855;DHT22;66343;44.588;33.450;2023-02-18T17:24:50;9.80;76.19
76855;DHT22;66343;44.588;33.450;2023-02-18T17:27:36;9.80;76.21
76855;DHT22;66343;44.588;33.450;2023-02-18T17:30:07;9.81;76.16
76855;DHT22;66343;44.588;33.450;2023-02-18T17:32:38;9.82;76.12
76855;DHT22;66343;44.588;33.450;2023-02-18T17:35:21;9.83;76.21
76855;DHT22;66343;44.588;33.450;2023-02-18T17:37:55;9.83;76.33
76855;DHT22;66343;44.588;33.450;2023-02-18T17:40:28;9.82;76.57
76855;DHT22;66343;44.588;33.450;2023-02-18T17:43:05;9.83;76.70
76855;DHT22;66343;44.588;33.450;2023-02-18T17:48:40;9.82;77.15
76855;DHT22;66343;44.588;33.450;2023-02-18T17:51:32;9.81;77.44
76855;DHT22;66343;44.588;33.450;2023-02-18T17:54:14;9.81;77.52
76855;DHT22;66343;44.588;33.450;2023-02-18T17:57:05;9.78;77.82
76855;DHT22;66343;44.588;33.450;2023-02-18T17:59:46;9.80;77.97
76855;DHT22;66343;44.588;33.450;2023-02-18T18:02:27;9.76;78.29
76855;DHT22;66343;44.588;33.450;2023-02-18T18:05:05;9.77;78.32
76855;DHT22;66343;44.588;33.450;2023-02-18T18:07:35;9.78;78.38
76855;DHT22;66343;44.588;33.450;2023-02-18T18:10:15;9.74;78.75
76855;DHT22;66343;44.588;33.450;2023-02-18T18:13:14;9.75;78.77
76855;DHT22;66343;44.588;33.450;2023-02-18T18:15:50;9.78;78.56
76855;DHT22;66343;44.588;33.450;2023-02-18T18:18:26;9.77;78.56
76855;DHT22;66343;44.588;33.450;2023-02-18T18:21:02;9.78;78.85